createdAt,value
2018-09-06T00:00:19.194Z,21.23
2018-09-06T00:02:54.220Z,23.43
2018-09-06T00:05:28.758Z,21.80
2018-09-06T00:08:04.077Z,22.60
2018-09-06T00:10:41.482Z,22.03
2018-09-06T00:13:16.200Z,23.30
2018-09-06T00:15:51.624Z,22.73
2018-09-06T00:18:26.244Z,21.93
2018-09-06T00:21:01.277Z,20.73
2018-09-06T00:23:35.779Z,21.03
2018-09-06T00:26:10.108Z,21.13
2018-09-06T00:28:44.794Z,20.57
2018-09-06T00:31:19.690Z,21.93
2018-09-06T00:33:54.683Z,20.73
2018-09-06T00:36:29.380Z,21.47
2018-09-06T00:39:04.930Z,22.30
2018-09-06T00:41:43.057Z,21.07
2018-09-06T00:44:18.037Z,19.33
2018-09-06T00:46:52.952Z,19.27
2018-09-06T00:49:27.362Z,20.50
2018-09-06T00:52:02.055Z,20.53
2018-09-06T00:54:36.967Z,19.77
2018-09-06T00:57:11.812Z,18.83
2018-09-06T00:59:46.846Z,17.57
2018-09-06T01:02:21.431Z,18.83
2018-09-06T01:04:56.200Z,20.20
2018-09-06T01:07:31.175Z,20.20
2018-09-06T01:10:06.789Z,18.63
2018-09-06T01:12:41.455Z,18.63
2018-09-06T01:15:15.982Z,19.53
2018-09-06T01:17:50.522Z,19.90
2018-09-06T01:20:24.887Z,19.90
2018-09-06T01:22:59.610Z,18.67
2018-09-06T01:25:39.888Z,19.20
2018-09-06T01:28:14.511Z,19.10
2018-09-06T01:30:49.920Z,20.20
2018-09-06T01:33:24.331Z,19.03
2018-09-06T01:36:04.609Z,19.57
2018-09-06T01:38:38.961Z,19.60
2018-09-06T01:41:14.103Z,19.03
2018-09-06T01:43:48.784Z,19.03
2018-09-06T01:46:23.559Z,18.17
2018-09-06T01:48:58.052Z,17.37
2018-09-06T01:51:32.688Z,18.90
2018-09-06T01:54:07.628Z,18.07
2018-09-06T01:56:42.583Z,19.93
2018-09-06T01:59:17.079Z,17.83
2018-09-06T02:01:52.387Z,17.87
2018-09-06T02:04:26.734Z,17.13
2018-09-06T02:07:01.585Z,17.77
2018-09-06T02:09:36.196Z,18.30
2018-09-06T02:12:11.175Z,18.43
2018-09-06T02:14:45.768Z,17.47
2018-09-06T02:17:20.747Z,17.03
2018-09-06T02:19:55.565Z,18.07
2018-09-06T02:22:30.333Z,18.27
2018-09-06T02:25:04.951Z,17.17
2018-09-06T02:27:39.641Z,17.03
2018-09-06T02:30:14.467Z,17.53
2018-09-06T02:32:48.796Z,16.40
2018-09-06T02:35:23.218Z,16.70
2018-09-06T02:37:58.076Z,16.33
2018-09-06T02:40:39.216Z,16.23
2018-09-06T02:43:15.039Z,15.57
2018-09-06T02:45:49.767Z,16.23
2018-09-06T02:48:30.238Z,15.30
2018-09-06T02:51:09.873Z,15.40
2018-09-06T02:53:45.177Z,15.37
2018-09-06T02:56:19.940Z,15.17
2018-09-06T02:58:54.999Z,15.50
2018-09-06T03:01:29.996Z,14.80
2018-09-06T03:04:04.620Z,16.27
2018-09-06T03:06:39.292Z,15.83
2018-09-06T03:09:13.691Z,16.60
2018-09-06T03:11:49.227Z,15.93
2018-09-06T03:14:23.742Z,15.57
2018-09-06T03:16:58.501Z,14.97
2018-09-06T03:19:33.242Z,17.50
2018-09-06T03:22:08.692Z,17.00
2018-09-06T03:24:43.751Z,17.30
2018-09-06T03:27:18.595Z,17.10
2018-09-06T03:29:53.108Z,16.77
2018-09-06T03:32:28.593Z,16.27
2018-09-06T03:35:03.453Z,16.97
2018-09-06T03:37:38.419Z,17.20
2018-09-06T03:40:12.871Z,17.43
2018-09-06T03:42:47.587Z,17.00
2018-09-06T03:45:21.967Z,16.53
2018-09-06T03:47:56.965Z,16.50
2018-09-06T03:50:32.267Z,17.00
2018-09-06T03:53:06.862Z,16.43
2018-09-06T03:55:41.719Z,17.30
2018-09-06T03:58:16.335Z,17.03
2018-09-06T04:00:51.208Z,16.53
2018-09-06T04:03:26.068Z,17.57
2018-09-06T04:06:00.656Z,16.93
2018-09-06T04:08:35.143Z,16.83
2018-09-06T04:11:09.944Z,16.83
2018-09-06T04:13:45.074Z,17.13
2018-09-06T04:16:19.558Z,16.57
2018-09-06T04:18:54.415Z,16.40
2018-09-06T04:21:28.975Z,16.43
2018-09-06T04:24:03.831Z,16.27
2018-09-06T04:26:38.124Z,15.83
2018-09-06T04:29:12.668Z,15.83
2018-09-06T04:31:47.432Z,15.73
2018-09-06T04:34:21.907Z,15.57
2018-09-06T04:36:56.656Z,15.60
2018-09-06T04:39:31.311Z,15.47
2018-09-06T04:42:06.298Z,15.67
2018-09-06T04:44:41.469Z,15.60
2018-09-06T04:47:16.044Z,16.47
2018-09-06T04:49:50.679Z,15.90
2018-09-06T04:52:25.421Z,15.67
2018-09-06T04:55:00.392Z,15.20
2018-09-06T04:57:35.268Z,15.50
2018-09-06T05:00:09.764Z,16.37
2018-09-06T05:02:44.364Z,16.37
2018-09-06T05:05:19.245Z,16.23
2018-09-06T05:07:53.943Z,15.00
2018-09-06T05:10:28.461Z,16.03
2018-09-06T05:13:02.807Z,15.90
2018-09-06T05:15:37.212Z,16.07
2018-09-06T05:18:11.752Z,15.30
2018-09-06T05:20:46.579Z,15.37
2018-09-06T05:23:21.048Z,15.20
2018-09-06T05:25:55.687Z,15.80
2018-09-06T05:28:30.644Z,16.63
2018-09-06T05:31:05.224Z,15.80
2018-09-06T05:33:39.737Z,15.07
2018-09-06T05:36:14.303Z,15.23
2018-09-06T05:38:49.107Z,15.90
2018-09-06T05:41:23.760Z,15.30
2018-09-06T05:43:58.642Z,16.47
2018-09-06T05:46:33.461Z,16.67
2018-09-06T05:49:08.179Z,17.17
2018-09-06T05:51:42.864Z,15.73
2018-09-06T05:54:17.356Z,17.30
2018-09-06T05:56:52.038Z,17.27
2018-09-06T05:59:26.926Z,16.17
2018-09-06T06:02:01.756Z,17.10
2018-09-06T06:04:36.649Z,15.90
2018-09-06T06:07:11.625Z,16.67
2018-09-06T06:09:46.359Z,16.23
2018-09-06T06:12:20.815Z,18.50
2018-09-06T06:14:55.749Z,17.40
2018-09-06T06:17:30.287Z,18.23
2018-09-06T06:20:05.586Z,18.07
2018-09-06T06:22:40.469Z,17.90
2018-09-06T06:25:14.941Z,17.73
2018-09-06T06:27:50.362Z,18.57
2018-09-06T06:30:25.432Z,17.70
2018-09-06T06:33:00.179Z,19.07
2018-09-06T06:35:34.968Z,19.30
2018-09-06T06:38:09.311Z,19.13
2018-09-06T06:40:43.767Z,19.30
2018-09-06T06:43:18.711Z,18.37
2018-09-06T06:45:53.479Z,18.70
2018-09-06T06:48:28.284Z,19.23
2018-09-06T06:51:02.963Z,18.90
2018-09-06T06:53:37.358Z,18.33
2018-09-06T06:56:12.183Z,19.17
2018-09-06T06:58:47.223Z,18.40
2018-09-06T07:01:22.392Z,17.53
2018-09-06T07:03:57.136Z,18.93
2018-09-06T07:06:32.043Z,17.07
2018-09-06T07:09:08.327Z,17.40
2018-09-06T07:11:42.828Z,17.27
2018-09-06T07:14:17.216Z,19.63
2018-09-06T07:16:52.068Z,19.13
2018-09-06T07:19:27.414Z,19.63
2018-09-06T07:22:02.080Z,20.00
2018-09-06T07:24:36.727Z,21.80
2018-09-06T07:27:11.595Z,21.30
2018-09-06T07:29:46.439Z,23.50
2018-09-06T07:32:22.033Z,26.60
2018-09-06T07:34:57.503Z,25.30
2018-09-06T07:37:32.228Z,23.90
2018-09-06T07:40:06.823Z,24.77
2018-09-06T07:42:41.784Z,24.23
2018-09-06T07:45:16.275Z,23.93
2018-09-06T07:47:50.870Z,23.20
2018-09-06T07:50:25.675Z,22.90
2018-09-06T07:53:00.657Z,22.03
2018-09-06T07:55:35.660Z,22.37
2018-09-06T07:58:10.800Z,22.37
2018-09-06T08:00:45.113Z,22.00
2018-09-06T08:03:20.345Z,19.83
2018-09-06T08:05:55.092Z,18.90
2018-09-06T08:08:29.525Z,17.47
2018-09-06T08:11:04.428Z,16.43
2018-09-06T08:13:39.612Z,15.27
2018-09-06T08:16:14.060Z,14.87
2018-09-06T08:18:49.430Z,14.30
2018-09-06T08:21:24.603Z,15.33
2018-09-06T08:23:59.106Z,13.83
2018-09-06T08:26:34.127Z,13.43
2018-09-06T08:29:08.939Z,14.13
2018-09-06T08:31:43.301Z,13.97
2018-09-06T08:34:18.492Z,12.67
2018-09-06T08:36:53.530Z,12.93
2018-09-06T08:39:28.835Z,13.33
2018-09-06T08:42:03.295Z,12.53
2018-09-06T08:44:38.296Z,12.50
2018-09-06T08:47:12.788Z,12.50
2018-09-06T08:49:47.783Z,12.73
2018-09-06T08:52:22.237Z,12.23
2018-09-06T08:54:57.204Z,11.73
2018-09-06T08:57:31.752Z,12.50
2018-09-06T09:00:06.304Z,12.70
2018-09-06T09:02:40.876Z,11.10
2018-09-06T09:05:15.633Z,11.53
2018-09-06T09:07:50.704Z,11.10
2018-09-06T09:10:25.710Z,11.17
2018-09-06T09:13:00.909Z,11.50
2018-09-06T09:15:35.872Z,11.57
2018-09-06T09:18:10.558Z,11.07
2018-09-06T09:20:45.130Z,12.17
2018-09-06T09:23:19.540Z,10.47
2018-09-06T09:25:54.388Z,11.17
2018-09-06T09:28:28.875Z,10.53
2018-09-06T09:31:03.582Z,11.10
2018-09-06T09:33:38.449Z,10.67
2018-09-06T09:36:14.942Z,10.10
2018-09-06T09:38:50.560Z,10.73
2018-09-06T09:41:25.160Z,11.10
2018-09-06T09:43:59.888Z,10.30
2018-09-06T09:49:09.003Z,10.57
2018-09-06T09:51:43.846Z,10.53
2018-09-06T09:54:18.479Z,10.17
2018-09-06T09:56:52.958Z,9.80
2018-09-06T09:59:27.664Z,10.10
2018-09-06T10:02:07.206Z,10.03
2018-09-06T10:04:47.183Z,9.93
2018-09-06T10:07:27.081Z,10.07
2018-09-06T10:10:02.834Z,10.90
2018-09-06T10:12:37.631Z,10.20
2018-09-06T10:15:12.635Z,10.10
2018-09-06T10:17:47.413Z,10.67
2018-09-06T10:20:22.227Z,9.83
2018-09-06T10:22:57.074Z,9.77
2018-09-06T10:25:31.807Z,9.77
2018-09-06T10:28:06.491Z,9.90
2018-09-06T10:30:41.530Z,9.37
2018-09-06T10:33:16.452Z,10.30
2018-09-06T10:35:51.781Z,10.20
2018-09-06T10:38:26.419Z,9.27
2018-09-06T10:41:00.878Z,10.20
2018-09-06T10:43:35.820Z,9.23
2018-09-06T10:46:10.485Z,9.43
2018-09-06T10:48:45.399Z,9.40
2018-09-06T10:51:19.785Z,8.77
2018-09-06T10:53:54.884Z,8.97
2018-09-06T10:56:29.957Z,9.07
2018-09-06T10:59:04.411Z,9.47
2018-09-06T11:01:39.647Z,8.83
2018-09-06T11:04:14.650Z,8.73
2018-09-06T11:06:49.074Z,8.40
2018-09-06T11:09:23.926Z,8.63
2018-09-06T11:11:58.828Z,9.00
2018-09-06T11:14:33.200Z,9.17
2018-09-06T11:17:08.420Z,8.87
2018-09-06T11:19:42.713Z,8.87
2018-09-06T11:22:17.349Z,8.60
2018-09-06T11:24:52.375Z,8.40
2018-09-06T11:27:27.243Z,8.87
2018-09-06T11:30:01.876Z,8.03
2018-09-06T11:32:36.731Z,8.00
2018-09-06T11:35:11.548Z,8.50
2018-09-06T11:37:46.762Z,8.73
2018-09-06T11:40:21.247Z,8.33
2018-09-06T11:42:56.738Z,8.20
2018-09-06T11:45:31.623Z,9.20
2018-09-06T11:48:05.971Z,8.70
2018-09-06T11:50:41.191Z,8.57
2018-09-06T11:53:15.647Z,8.17
2018-09-06T11:55:50.724Z,9.10
2018-09-06T11:58:25.495Z,8.23
2018-09-06T12:00:59.971Z,8.63
2018-09-06T12:03:35.127Z,8.27
2018-09-06T12:06:10.071Z,8.77
2018-09-06T12:08:45.259Z,7.80
2018-09-06T12:11:19.780Z,8.00
2018-09-06T12:13:54.650Z,7.93
2018-09-06T12:16:29.209Z,7.60
2018-09-06T12:19:04.361Z,8.10
2018-09-06T12:21:39.420Z,8.90
2018-09-06T12:24:14.171Z,8.00
2018-09-06T12:26:48.871Z,8.27
2018-09-06T12:29:23.611Z,7.93
2018-09-06T12:31:58.869Z,7.17
2018-09-06T12:34:34.004Z,8.33
2018-09-06T12:37:12.117Z,7.57
2018-09-06T12:39:46.752Z,7.10
2018-09-06T12:42:21.983Z,7.67
2018-09-06T12:44:56.835Z,7.37
2018-09-06T12:47:32.039Z,7.07
2018-09-06T12:50:06.764Z,7.03
2018-09-06T12:52:41.520Z,6.83
2018-09-06T12:55:16.072Z,7.00
2018-09-06T12:57:51.533Z,7.40
2018-09-06T13:00:26.599Z,6.40
2018-09-06T13:03:01.138Z,7.37
2018-09-06T13:05:35.645Z,7.43
2018-09-06T13:08:10.181Z,7.87
2018-09-06T13:10:45.675Z,7.73
2018-09-06T13:13:20.338Z,7.50
2018-09-06T13:15:54.772Z,7.50
2018-09-06T13:18:29.289Z,7.33
2018-09-06T13:21:03.971Z,8.03
2018-09-06T13:23:38.488Z,7.67
2018-09-06T13:26:13.511Z,7.30
2018-09-06T13:28:47.965Z,8.03
2018-09-06T13:31:22.743Z,7.27
2018-09-06T13:33:57.511Z,6.97
2018-09-06T13:36:32.028Z,7.27
2018-09-06T13:39:09.037Z,7.77
2018-09-06T13:41:43.451Z,7.87
2018-09-06T13:44:18.179Z,8.00
2018-09-06T13:46:53.159Z,7.47
2018-09-06T13:49:27.849Z,7.17
2018-09-06T13:52:02.393Z,7.90
2018-09-06T13:54:37.507Z,8.10
2018-09-06T13:57:11.987Z,7.83
2018-09-06T13:59:46.252Z,7.37
2018-09-06T14:02:20.959Z,7.10
2018-09-06T14:04:55.653Z,7.63
2018-09-06T14:07:30.531Z,7.33
2018-09-06T14:10:05.646Z,6.93
2018-09-06T14:12:40.463Z,8.00
2018-09-06T14:15:15.240Z,7.10
2018-09-06T14:17:49.693Z,7.73
2018-09-06T14:20:24.091Z,7.80
2018-09-06T14:22:58.487Z,6.97
2018-09-06T14:25:33.602Z,7.70
2018-09-06T14:28:08.215Z,8.20
2018-09-06T14:30:42.819Z,7.60
2018-09-06T14:33:17.408Z,7.23
2018-09-06T14:35:51.952Z,8.20
2018-09-06T14:38:26.590Z,7.83
2018-09-06T14:41:01.183Z,7.37
2018-09-06T14:43:35.801Z,8.37
2018-09-06T14:46:10.387Z,7.70
2018-09-06T14:48:44.789Z,8.53
2018-09-06T14:51:19.472Z,7.80
2018-09-06T14:53:54.155Z,7.93
2018-09-06T14:56:29.235Z,7.47
2018-09-06T14:59:03.801Z,7.60
2018-09-06T15:01:38.292Z,8.30
2018-09-06T15:04:12.957Z,7.87
2018-09-06T15:06:47.897Z,8.03
2018-09-06T15:09:22.213Z,8.00
2018-09-06T15:11:57.039Z,7.40
2018-09-06T15:14:31.775Z,7.83
2018-09-06T15:17:06.239Z,7.73
2018-09-06T15:19:40.925Z,7.60
2018-09-06T15:22:15.294Z,7.20
2018-09-06T15:24:49.710Z,7.83
2018-09-06T15:27:24.154Z,7.27
2018-09-06T15:29:58.468Z,7.70
2018-09-06T15:32:33.362Z,7.80
2018-09-06T15:35:07.959Z,7.90
2018-09-06T15:37:42.450Z,7.43
2018-09-06T15:40:16.816Z,7.70
2018-09-06T15:42:51.326Z,7.70
2018-09-06T15:45:25.775Z,8.00
2018-09-06T15:48:00.320Z,7.57
2018-09-06T15:50:36.661Z,7.23
2018-09-06T15:53:11.319Z,7.57
2018-09-06T15:55:46.628Z,7.67
2018-09-06T15:58:21.259Z,7.23
2018-09-06T16:00:55.666Z,7.47
2018-09-06T16:03:30.469Z,7.20
2018-09-06T16:06:05.647Z,7.63
2018-09-06T16:08:40.111Z,8.10
2018-09-06T16:11:14.839Z,7.10
2018-09-06T16:13:49.728Z,7.00
2018-09-06T16:16:24.044Z,7.70
2018-09-06T16:18:58.652Z,7.33
2018-09-06T16:21:33.322Z,7.50
2018-09-06T16:24:07.833Z,6.90
2018-09-06T16:26:44.728Z,7.57
2018-09-06T16:29:19.289Z,8.30
2018-09-06T16:31:53.820Z,7.87
2018-09-06T16:34:29.065Z,7.87
2018-09-06T16:37:03.758Z,8.07
2018-09-06T16:39:38.415Z,7.70
2018-09-06T16:42:13.199Z,8.00
2018-09-06T16:44:47.836Z,7.73
2018-09-06T16:47:22.199Z,7.87
2018-09-06T16:49:56.649Z,7.70
2018-09-06T16:52:31.274Z,7.80
2018-09-06T16:55:08.436Z,7.53
2018-09-06T16:57:43.236Z,7.60
2018-09-06T17:00:17.723Z,7.50
2018-09-06T17:02:52.315Z,7.63
2018-09-06T17:05:27.103Z,8.07
2018-09-06T17:08:01.971Z,7.27
2018-09-06T17:10:36.472Z,7.13
2018-09-06T17:13:11.101Z,8.00
2018-09-06T17:15:45.649Z,7.43
2018-09-06T17:18:20.095Z,7.40
2018-09-06T17:20:54.561Z,7.27
2018-09-06T17:23:29.538Z,7.40
2018-09-06T17:26:04.678Z,7.20
2018-09-06T17:28:39.257Z,7.43
2018-09-06T17:31:13.903Z,7.37
2018-09-06T17:33:48.220Z,7.47
2018-09-06T17:36:23.234Z,7.87
2018-09-06T17:38:57.726Z,7.90
2018-09-06T17:41:32.428Z,7.50
2018-09-06T17:44:07.168Z,7.63
2018-09-06T17:46:41.701Z,8.10
2018-09-06T17:49:16.667Z,7.47
2018-09-06T17:51:51.382Z,7.77
2018-09-06T17:54:25.863Z,7.97
2018-09-06T17:57:00.927Z,8.70
2018-09-06T17:59:35.212Z,8.07
2018-09-06T18:02:10.057Z,8.13
2018-09-06T18:04:45.059Z,7.93
2018-09-06T18:07:19.768Z,8.70
2018-09-06T18:09:54.044Z,9.00
2018-09-06T18:12:28.711Z,8.77
2018-09-06T18:15:03.169Z,9.07
2018-09-06T18:17:37.871Z,8.93
2018-09-06T18:20:12.443Z,9.20
2018-09-06T18:22:47.213Z,9.43
2018-09-06T18:25:21.658Z,9.30
2018-09-06T18:27:56.992Z,9.37
2018-09-06T18:30:31.616Z,9.40
2018-09-06T18:33:06.088Z,9.40
2018-09-06T18:35:40.913Z,9.23
2018-09-06T18:38:15.708Z,9.40
2018-09-06T18:40:50.701Z,8.97
2018-09-06T18:43:25.019Z,9.73
2018-09-06T18:45:59.299Z,9.53
2018-09-06T18:48:34.372Z,9.13
2018-09-06T18:51:09.154Z,9.67
2018-09-06T18:53:44.234Z,9.17
2018-09-06T18:56:18.796Z,9.33
2018-09-06T18:58:53.445Z,10.20
2018-09-06T19:01:27.972Z,9.90
2018-09-06T19:04:02.472Z,10.73
2018-09-06T19:06:37.663Z,9.80
2018-09-06T19:09:13.299Z,10.93
2018-09-06T19:11:47.915Z,11.00
2018-09-06T19:14:22.785Z,11.00
2018-09-06T19:16:57.344Z,11.03
2018-09-06T19:19:31.796Z,10.97
2018-09-06T19:22:06.431Z,11.20
2018-09-06T19:24:44.819Z,11.07
2018-09-06T19:27:19.319Z,10.13
2018-09-06T19:29:53.876Z,9.90
2018-09-06T19:32:28.731Z,10.27
2018-09-06T19:35:03.536Z,9.27
2018-09-06T19:37:37.843Z,9.37
2018-09-06T19:40:12.640Z,8.87
2018-09-06T19:42:47.391Z,9.13
2018-09-06T19:45:22.113Z,9.03
2018-09-06T19:47:56.757Z,8.90
2018-09-06T19:50:31.279Z,8.53
2018-09-06T19:53:05.976Z,8.80
2018-09-06T19:55:40.311Z,8.70
2018-09-06T19:58:15.275Z,8.37
2018-09-06T20:00:50.267Z,8.67
2018-09-06T20:03:24.799Z,8.70
2018-09-06T20:05:59.396Z,8.60
2018-09-06T20:08:33.848Z,8.63
2018-09-06T20:11:08.343Z,8.07
2018-09-06T20:13:42.991Z,8.10
2018-09-06T20:16:19.483Z,8.37
2018-09-06T20:18:54.152Z,8.70
2018-09-06T20:24:29.724Z,7.87
2018-09-06T20:27:05.135Z,8.50
2018-09-06T20:29:39.846Z,8.60
2018-09-06T20:32:14.807Z,8.23
2018-09-06T20:34:49.935Z,8.07
2018-09-06T20:37:24.843Z,7.73
2018-09-06T20:40:02.207Z,7.63
2018-09-06T20:42:40.820Z,7.63
2018-09-06T20:45:15.517Z,7.00
2018-09-06T20:47:50.276Z,7.33
2018-09-06T20:50:25.224Z,7.50
2018-09-06T20:53:00.148Z,8.00
2018-09-06T20:55:35.080Z,7.10
2018-09-06T20:58:09.971Z,7.67
2018-09-06T21:00:44.476Z,7.63
2018-09-06T21:03:20.772Z,7.20
2018-09-06T21:05:56.076Z,6.77
2018-09-06T21:08:31.373Z,6.00
2018-09-06T21:11:07.351Z,5.37
2018-09-06T21:13:42.064Z,5.07
2018-09-06T21:16:16.793Z,5.07
2018-09-06T21:18:51.466Z,4.80
2018-09-06T21:21:25.957Z,4.60
2018-09-06T21:24:00.835Z,4.43
2018-09-06T21:26:35.747Z,4.40
2018-09-06T21:29:10.431Z,4.30
2018-09-06T21:31:44.838Z,4.60
2018-09-06T21:34:19.299Z,4.00
2018-09-06T21:36:53.912Z,4.17
2018-09-06T21:39:28.380Z,4.40
2018-09-06T21:42:03.502Z,4.80
2018-09-06T21:44:38.036Z,3.93
2018-09-06T21:47:12.500Z,4.20
2018-09-06T21:49:46.815Z,4.03
2018-09-06T21:52:21.227Z,4.40
2018-09-06T21:54:56.061Z,4.27
2018-09-06T21:57:30.708Z,4.50
2018-09-06T22:00:05.693Z,4.70
2018-09-06T22:03:44.488Z,4.60
2018-09-06T22:06:19.244Z,4.20
2018-09-06T22:08:53.623Z,4.70
2018-09-06T22:11:28.359Z,4.17
2018-09-06T22:14:03.209Z,4.40
2018-09-06T22:16:37.862Z,4.30
2018-09-06T22:19:12.563Z,4.63
2018-09-06T22:21:47.168Z,4.50
2018-09-06T22:24:22.088Z,4.80
2018-09-06T22:26:56.428Z,4.67
2018-09-06T22:29:31.469Z,4.60
2018-09-06T22:32:06.070Z,4.90
2018-09-06T22:34:40.555Z,4.53
2018-09-06T22:37:14.894Z,4.97
2018-09-06T22:39:49.672Z,4.90
2018-09-06T22:42:23.952Z,5.13
2018-09-06T22:44:58.761Z,4.60
2018-09-06T22:47:33.764Z,4.43
2018-09-06T22:50:08.683Z,4.87
2018-09-06T22:52:43.420Z,4.70
2018-09-06T22:55:18.559Z,5.03
2018-09-06T22:57:52.987Z,4.80
2018-09-06T23:00:31.252Z,5.30
2018-09-06T23:03:11.112Z,5.10
2018-09-06T23:05:45.483Z,4.93
2018-09-06T23:08:19.879Z,5.10
2018-09-06T23:10:54.442Z,5.50
2018-09-06T23:13:29.017Z,5.10
2018-09-06T23:16:03.875Z,5.23
2018-09-06T23:18:38.183Z,5.27
2018-09-06T23:21:13.089Z,5.20
2018-09-06T23:23:47.873Z,6.17
2018-09-06T23:26:22.444Z,5.60
2018-09-06T23:28:57.307Z,6.10
2018-09-06T23:31:31.952Z,5.83
2018-09-06T23:34:06.627Z,6.10
2018-09-06T23:36:41.324Z,6.23
2018-09-06T23:39:15.717Z,6.07
2018-09-06T23:41:50.604Z,5.80
2018-09-06T23:44:25.376Z,5.60
2018-09-06T23:47:00.755Z,5.80
2018-09-06T23:49:35.195Z,5.63
2018-09-06T23:52:12.148Z,5.17
2018-09-06T23:54:47.223Z,5.00
2018-09-06T23:57:22.083Z,4.73
2018-09-06T23:59:56.996Z,5.20
